Ana Sayfa
METAR-TAF:

METAR-TAF

Havaalanları :

Ciudad Juarez, Meksika

Enlem: 31-38N, Boylam: 106-26W, yükseklik: 1171 m

Güncel hava durumu gözlemi

Rapor saat 11:40 UTC de 47 dakika önce yapıldı.
Sakin rüzgar
Sıcaklık 27°C
Nem 10%
Basınç 1012 hPa
Görüş mesafesi: 16.1 km
Açık gökyüzü

METAR: MMCS 161140Z 00000KT 10SM SKC 27/M07 A2987 RMK SLP973 5//// 977 RTS

Saat: 06:27 (12:27 UTC)

Tahmin

Rapor saat 05:28 UTC de 6 saat ve 59 dakika önce yapıldı.
Ayın 16'si saat 06 UTC'den ayın 17'si saat 06 UTC'ye kadar geçerli Tahmin
Rüzgar kuzeydan kt
Görüş mesafesi: 10 km
Açık gökyüzü
Dönüşüyor
ayın 16'si saat 17 UTC'den ayın 16'si saat 18 UTC'ye kadar
Rüzgar batı/güneybatıdan 12 kt
Ayın 17'si saat 0300 UTC'den
Rüzgar kuzeydan kt
Görüş mesafesi: 10 km
Açık gökyüzü

TAF: MMCS 160528Z 1606/1706 00000KT P6SM SKC BECMG 1617/1618 24012KT FM170300 00000KT P6SM SKC

4.000'den fazla havaalanı için hava durumu gözlemleri ve tahminleri (METAR ve TAF raporları).

Kullanılabilir istasyonlar harita üzerinde sarı ve kırmızı noktalarla gösterilir.

İstasyonun adını görmek için fareyi noktanın üzerinde gezdirin.

Sonrasında hava gözlem ve tahminlerini görmek için tıklayın.

Haritayı değiştirmek için: yaklaştırmak için siyah artı işaretli yeşil düğmeye ve uzaklaştırmak için de eksi işaretli düğmeye hızla tıklayın; bitişik haritalar için yeşil okları kullanın.


METAR-TAF: